sensor_id;sensor_type;location;lat;lon;timestamp;pressure;altitude;pressure_sealevel;temperature;humidity
25080;BME280;13071;48.868;9.996;2023-04-05T00:01:45;97048.53;;;-0.80;75.80
25080;BME280;13071;48.868;9.996;2023-04-05T00:04:15;97042.16;;;-0.79;75.57
25080;BME280;13071;48.868;9.996;2023-04-05T00:06:46;97041.16;;;-0.73;75.03
25080;BME280;13071;48.868;9.996;2023-04-05T00:09:16;97040.91;;;-0.71;75.07
25080;BME280;13071;48.868;9.996;2023-04-05T00:11:43;97040.22;;;-0.83;75.45
25080;BME280;13071;48.868;9.996;2023-04-05T00:14:09;97032.81;;;-1.03;75.51
25080;BME280;13071;48.868;9.996;2023-04-05T00:16:36;97033.75;;;-1.14;77.11
25080;BME280;13071;48.868;9.996;2023-04-05T00:19:03;97042.81;;;-1.10;76.38
25080;BME280;13071;48.868;9.996;2023-04-05T00:21:31;97034.97;;;-1.22;77.60
25080;BME280;13071;48.868;9.996;2023-04-05T00:23:59;97037.53;;;-1.27;77.26
25080;BME280;13071;48.868;9.996;2023-04-05T00:26:26;97034.00;;;-1.33;77.36
25080;BME280;13071;48.868;9.996;2023-04-05T00:28:52;97039.59;;;-1.34;77.80
25080;BME280;13071;48.868;9.996;2023-04-05T00:31:19;97028.28;;;-1.24;77.15
25080;BME280;13071;48.868;9.996;2023-04-05T00:33:46;97025.94;;;-1.21;77.23
25080;BME280;13071;48.868;9.996;2023-04-05T00:36:14;97022.66;;;-1.28;76.97
25080;BME280;13071;48.868;9.996;2023-04-05T00:38:43;97030.25;;;-1.37;77.15
25080;BME280;13071;48.868;9.996;2023-04-05T00:41:10;97016.88;;;-1.42;76.83
25080;BME280;13071;48.868;9.996;2023-04-05T00:43:37;97025.22;;;-1.33;76.82
25080;BME280;13071;48.868;9.996;2023-04-05T00:46:05;97015.56;;;-1.22;77.00
25080;BME280;13071;48.868;9.996;2023-04-05T00:48:32;97012.50;;;-1.14;75.90
25080;BME280;13071;48.868;9.996;2023-04-05T00:50:58;97024.41;;;-1.17;75.73
25080;BME280;13071;48.868;9.996;2023-04-05T00:53:25;97013.03;;;-1.12;75.85
25080;BME280;13071;48.868;9.996;2023-04-05T00:55:54;97009.13;;;-1.26;75.77
25080;BME280;13071;48.868;9.996;2023-04-05T00:58:21;97005.19;;;-1.24;76.22
25080;BME280;13071;48.868;9.996;2023-04-05T01:00:56;97007.53;;;-1.27;76.04
25080;BME280;13071;48.868;9.996;2023-04-05T01:03:26;96997.72;;;-1.27;76.73
25080;BME280;13071;48.868;9.996;2023-04-05T01:06:06;96993.72;;;-1.29;76.97
25080;BME280;13071;48.868;9.996;2023-04-05T01:08:41;96994.75;;;-1.31;76.91
25080;BME280;13071;48.868;9.996;2023-04-05T01:11:12;96989.44;;;-1.31;76.63
25080;BME280;13071;48.868;9.996;2023-04-05T01:13:40;96981.78;;;-1.27;76.13
25080;BME280;13071;48.868;9.996;2023-04-05T01:16:06;96980.38;;;-1.35;75.29
25080;BME280;13071;48.868;9.996;2023-04-05T01:18:33;96972.75;;;-1.26;75.63
25080;BME280;13071;48.868;9.996;2023-04-05T01:21:13;96974.44;;;-1.20;75.56
25080;BME280;13071;48.868;9.996;2023-04-05T01:24:05;96972.22;;;-1.06;74.89
25080;BME280;13071;48.868;9.996;2023-04-05T01:26:55;96970.59;;;-1.07;74.99
25080;BME280;13071;48.868;9.996;2023-04-05T01:29:35;96967.59;;;-1.16;75.73
25080;BME280;13071;48.868;9.996;2023-04-05T01:32:10;96970.19;;;-1.21;75.07
25080;BME280;13071;48.868;9.996;2023-04-05T01:34:46;96957.69;;;-1.20;75.71
25080;BME280;13071;48.868;9.996;2023-04-05T01:37:18;96955.66;;;-1.13;74.89
25080;BME280;13071;48.868;9.996;2023-04-05T01:39:46;96960.59;;;-1.22;75.46
25080;BME280;13071;48.868;9.996;2023-04-05T01:42:16;96950.78;;;-1.21;75.53
25080;BME280;13071;48.868;9.996;2023-04-05T01:44:49;96944.13;;;-1.24;75.00
25080;BME280;13071;48.868;9.996;2023-04-05T01:47:16;96953.25;;;-1.15;75.15
25080;BME280;13071;48.868;9.996;2023-04-05T01:49:42;96946.09;;;-1.14;74.82
25080;BME280;13071;48.868;9.996;2023-04-05T01:52:09;96944.19;;;-1.19;74.98
25080;BME280;13071;48.868;9.996;2023-04-05T01:54:35;96948.34;;;-1.23;74.41
25080;BME280;13071;48.868;9.996;2023-04-05T01:57:03;96949.16;;;-1.22;74.67
25080;BME280;13071;48.868;9.996;2023-04-05T01:59:30;96950.25;;;-1.23;74.34
25080;BME280;13071;48.868;9.996;2023-04-05T02:01:58;96944.34;;;-1.25;74.89
25080;BME280;13071;48.868;9.996;2023-04-05T02:04:24;96948.88;;;-1.26;75.20
25080;BME280;13071;48.868;9.996;2023-04-05T02:06:51;96943.09;;;-1.18;75.39
25080;BME280;13071;48.868;9.996;2023-04-05T02:09:17;96943.69;;;-1.16;74.88
25080;BME280;13071;48.868;9.996;2023-04-05T02:11:44;96937.06;;;-1.35;74.78
25080;BME280;13071;48.868;9.996;2023-04-05T02:14:11;96933.69;;;-1.31;74.64
25080;BME280;13071;48.868;9.996;2023-04-05T02:16:37;96940.03;;;-1.32;74.55
25080;BME280;13071;48.868;9.996;2023-04-05T02:19:05;96937.97;;;-1.46;75.25
25080;BME280;13071;48.868;9.996;2023-04-05T02:21:32;96934.72;;;-1.53;75.26
25080;BME280;13071;48.868;9.996;2023-04-05T02:24:00;96932.06;;;-1.53;75.42
25080;BME280;13071;48.868;9.996;2023-04-05T02:26:26;96934.66;;;-1.58;75.79
25080;BME280;13071;48.868;9.996;2023-04-05T02:28:53;96933.84;;;-1.59;76.24
25080;BME280;13071;48.868;9.996;2023-04-05T02:31:19;96934.59;;;-1.63;76.22
25080;BME280;13071;48.868;9.996;2023-04-05T02:33:46;96936.44;;;-1.64;76.50
25080;BME280;13071;48.868;9.996;2023-04-05T02:36:14;96930.63;;;-1.61;76.43
25080;BME280;13071;48.868;9.996;2023-04-05T02:38:41;96938.28;;;-1.64;76.08
25080;BME280;13071;48.868;9.996;2023-04-05T02:41:08;96929.44;;;-1.70;76.20
25080;BME280;13071;48.868;9.996;2023-04-05T02:43:36;96927.44;;;-1.80;76.73
25080;BME280;13071;48.868;9.996;2023-04-05T02:46:02;96924.41;;;-1.88;77.08
25080;BME280;13071;48.868;9.996;2023-04-05T02:48:29;96934.03;;;-1.82;77.17
25080;BME280;13071;48.868;9.996;2023-04-05T02:50:56;96928.41;;;-1.86;76.94
25080;BME280;13071;48.868;9.996;2023-04-05T02:53:24;96932.53;;;-1.78;77.28
25080;BME280;13071;48.868;9.996;2023-04-05T02:55:51;96927.75;;;-1.76;77.16
25080;BME280;13071;48.868;9.996;2023-04-05T02:58:18;96924.72;;;-1.85;77.57
25080;BME280;13071;48.868;9.996;2023-04-05T03:00:45;96918.84;;;-1.87;77.98
25080;BME280;13071;48.868;9.996;2023-04-05T03:03:15;96923.19;;;-1.81;77.82
25080;BME280;13071;48.868;9.996;2023-04-05T03:05:42;96919.56;;;-1.75;77.38
25080;BME280;13071;48.868;9.996;2023-04-05T03:08:08;96920.03;;;-1.78;77.23
25080;BME280;13071;48.868;9.996;2023-04-05T03:10:44;96913.63;;;-1.82;77.33
25080;BME280;13071;48.868;9.996;2023-04-05T03:13:12;96913.31;;;-1.85;77.24
25080;BME280;13071;48.868;9.996;2023-04-05T03:15:39;96918.19;;;-1.77;77.02
25080;BME280;13071;48.868;9.996;2023-04-05T03:18:05;96912.66;;;-1.76;76.89
25080;BME280;13071;48.868;9.996;2023-04-05T03:20:32;96909.75;;;-1.74;75.69
25080;BME280;13071;48.868;9.996;2023-04-05T03:23:00;96900.84;;;-1.85;76.80
25080;BME280;13071;48.868;9.996;2023-04-05T03:25:27;96913.47;;;-1.92;77.18
25080;BME280;13071;48.868;9.996;2023-04-05T03:27:55;96902.97;;;-2.03;78.34
25080;BME280;13071;48.868;9.996;2023-04-05T03:30:22;96908.59;;;-2.17;78.57
25080;BME280;13071;48.868;9.996;2023-04-05T03:32:48;96909.81;;;-2.07;78.46
25080;BME280;13071;48.868;9.996;2023-04-05T03:35:15;96894.69;;;-2.07;78.63
25080;BME280;13071;48.868;9.996;2023-04-05T03:37:43;96907.25;;;-2.02;79.05
25080;BME280;13071;48.868;9.996;2023-04-05T03:40:11;96908.13;;;-2.13;79.71
25080;BME280;13071;48.868;9.996;2023-04-05T03:42:37;96910.84;;;-2.08;79.80
25080;BME280;13071;48.868;9.996;2023-04-05T03:45:06;96915.75;;;-2.17;79.39
25080;BME280;13071;48.868;9.996;2023-04-05T03:47:33;96909.56;;;-2.06;78.54
25080;BME280;13071;48.868;9.996;2023-04-05T03:50:00;96910.38;;;-2.22;78.86
25080;BME280;13071;48.868;9.996;2023-04-05T03:52:26;96907.75;;;-2.22;78.46
25080;BME280;13071;48.868;9.996;2023-04-05T03:54:53;96910.69;;;-2.19;79.22
25080;BME280;13071;48.868;9.996;2023-04-05T03:57:20;96915.59;;;-2.10;78.81
25080;BME280;13071;48.868;9.996;2023-04-05T03:59:46;96912.44;;;-1.91;78.02
25080;BME280;13071;48.868;9.996;2023-04-05T04:02:14;96908.66;;;-2.11;78.06
25080;BME280;13071;48.868;9.996;2023-04-05T04:04:41;96916.31;;;-2.15;78.78
25080;BME280;13071;48.868;9.996;2023-04-05T04:07:07;96913.44;;;-2.13;79.52
25080;BME280;13071;48.868;9.996;2023-04-05T04:09:34;96912.78;;;-2.04;78.50
25080;BME280;13071;48.868;9.996;2023-04-05T04:12:00;96920.34;;;-2.29;79.39
25080;BME280;13071;48.868;9.996;2023-04-05T04:14:28;96917.13;;;-2.31;79.96
25080;BME280;13071;48.868;9.996;2023-04-05T04:16:54;96915.03;;;-2.46;80.03
25080;BME280;13071;48.868;9.996;2023-04-05T04:19:22;96912.47;;;-2.57;80.61
25080;BME280;13071;48.868;9.996;2023-04-05T04:21:49;96915.91;;;-2.57;80.36
25080;BME280;13071;48.868;9.996;2023-04-05T04:24:16;96915.34;;;-2.59;80.75
25080;BME280;13071;48.868;9.996;2023-04-05T04:26:44;96925.13;;;-2.59;80.92
25080;BME280;13071;48.868;9.996;2023-04-05T04:29:11;96912.91;;;-2.61;81.21
25080;BME280;13071;48.868;9.996;2023-04-05T04:31:40;96926.09;;;-2.66;81.21
25080;BME280;13071;48.868;9.996;2023-04-05T04:34:10;96918.78;;;-2.58;81.17
25080;BME280;13071;48.868;9.996;2023-04-05T04:36:39;96926.09;;;-2.66;81.74
25080;BME280;13071;48.868;9.996;2023-04-05T04:39:07;96927.25;;;-2.62;81.50
25080;BME280;13071;48.868;9.996;2023-04-05T04:41:34;96924.91;;;-2.58;81.50
25080;BME280;13071;48.868;9.996;2023-04-05T04:44:02;96924.91;;;-2.58;82.14
25080;BME280;13071;48.868;9.996;2023-04-05T04:46:32;96929.94;;;-2.56;81.10
25080;BME280;13071;48.868;9.996;2023-04-05T04:49:06;96923.97;;;-2.80;80.79
25080;BME280;13071;48.868;9.996;2023-04-05T04:51:35;96925.09;;;-2.76;81.05
25080;BME280;13071;48.868;9.996;2023-04-05T04:54:04;96921.28;;;-2.69;81.56
25080;BME280;13071;48.868;9.996;2023-04-05T04:56:30;96931.63;;;-2.67;81.24
25080;BME280;13071;48.868;9.996;2023-04-05T04:58:57;96925.19;;;-2.71;81.46
25080;BME280;13071;48.868;9.996;2023-04-05T05:01:23;96926.44;;;-2.62;81.48
25080;BME280;13071;48.868;9.996;2023-04-05T05:03:50;96927.22;;;-2.45;81.17
25080;BME280;13071;48.868;9.996;2023-04-05T05:06:17;96935.44;;;-2.30;80.74
25080;BME280;13071;48.868;9.996;2023-04-05T05:08:46;96928.03;;;-1.94;79.87
25080;BME280;13071;48.868;9.996;2023-04-05T05:11:14;96923.16;;;-1.64;79.33
25080;BME280;13071;48.868;9.996;2023-04-05T05:13:41;96921.63;;;-1.16;78.42
25080;BME280;13071;48.868;9.996;2023-04-05T05:16:07;96926.47;;;-0.87;75.65
25080;BME280;13071;48.868;9.996;2023-04-05T05:18:34;96926.34;;;-0.16;73.59
25080;BME280;13071;48.868;9.996;2023-04-05T05:21:01;96921.41;;;0.39;72.71
25080;BME280;13071;48.868;9.996;2023-04-05T05:23:27;96916.50;;;0.73;71.01
25080;BME280;13071;48.868;9.996;2023-04-05T05:25:56;96907.31;;;1.16;69.13
25080;BME280;13071;48.868;9.996;2023-04-05T05:28:25;96909.47;;;1.35;68.20
25080;BME280;13071;48.868;9.996;2023-04-05T05:30:52;96910.84;;;1.37;67.25
25080;BME280;13071;48.868;9.996;2023-04-05T05:33:18;96906.06;;;1.59;66.36
25080;BME280;13071;48.868;9.996;2023-04-05T05:35:47;96905.53;;;1.72;66.43
25080;BME280;13071;48.868;9.996;2023-04-05T05:38:13;96905.25;;;1.74;65.72
25080;BME280;13071;48.868;9.996;2023-04-05T05:40:41;96913.53;;;1.57;66.02
25080;BME280;13071;48.868;9.996;2023-04-05T05:43:07;96919.38;;;1.54;66.84
25080;BME280;13071;48.868;9.996;2023-04-05T05:45:36;96916.72;;;1.64;65.54
25080;BME280;13071;48.868;9.996;2023-04-05T05:48:02;96910.88;;;1.78;66.23
25080;BME280;13071;48.868;9.996;2023-04-05T05:50:30;96918.06;;;1.67;66.83
25080;BME280;13071;48.868;9.996;2023-04-05T05:52:57;96934.78;;;0.55;68.87
25080;BME280;13071;48.868;9.996;2023-04-05T05:55:24;96926.44;;;0.88;70.27
25080;BME280;13071;48.868;9.996;2023-04-05T05:57:50;96931.38;;;1.37;68.74
25080;BME280;13071;48.868;9.996;2023-04-05T06:00:18;96931.38;;;1.47;68.32
25080;BME280;13071;48.868;9.996;2023-04-05T06:02:46;96936.22;;;1.70;67.58
25080;BME280;13071;48.868;9.996;2023-04-05T06:05:13;96940.38;;;1.20;69.49
25080;BME280;13071;48.868;9.996;2023-04-05T06:07:40;96936.03;;;0.99;70.15
25080;BME280;13071;48.868;9.996;2023-04-05T06:10:07;96926.53;;;1.18;69.63
25080;BME280;13071;48.868;9.996;2023-04-05T06:12:34;96933.47;;;1.24;69.87
25080;BME280;13071;48.868;9.996;2023-04-05T06:15:01;96932.41;;;1.25;68.52
25080;BME280;13071;48.868;9.996;2023-04-05T06:17:28;96936.06;;;1.09;68.47
25080;BME280;13071;48.868;9.996;2023-04-05T06:19:55;96933.63;;;0.93;69.89
25080;BME280;13071;48.868;9.996;2023-04-05T06:22:22;96934.50;;;1.13;68.62
25080;BME280;13071;48.868;9.996;2023-04-05T06:24:49;96934.53;;;1.28;68.88
25080;BME280;13071;48.868;9.996;2023-04-05T06:27:15;96932.72;;;1.54;68.07
25080;BME280;13071;48.868;9.996;2023-04-05T06:29:42;96935.66;;;1.48;68.64
25080;BME280;13071;48.868;9.996;2023-04-05T06:32:08;96929.78;;;1.51;68.33
25080;BME280;13071;48.868;9.996;2023-04-05T06:34:35;96942.91;;;1.72;68.28
25080;BME280;13071;48.868;9.996;2023-04-05T06:37:03;96929.81;;;1.66;68.19
25080;BME280;13071;48.868;9.996;2023-04-05T06:39:30;96929.53;;;1.83;68.65
25080;BME280;13071;48.868;9.996;2023-04-05T06:41:57;96926.34;;;1.81;68.42
25080;BME280;13071;48.868;9.996;2023-04-05T06:44:23;96934.63;;;2.04;67.70
25080;BME280;13071;48.868;9.996;2023-04-05T06:46:50;96927.41;;;2.20;68.51
25080;BME280;13071;48.868;9.996;2023-04-05T06:49:16;96931.41;;;1.72;69.25
25080;BME280;13071;48.868;9.996;2023-04-05T06:51:43;96930.63;;;2.12;68.30
25080;BME280;13071;48.868;9.996;2023-04-05T06:54:11;96933.00;;;1.93;70.06
25080;BME280;13071;48.868;9.996;2023-04-05T06:56:37;96936.78;;;1.92;69.32
25080;BME280;13071;48.868;9.996;2023-04-05T06:59:04;96929.81;;;2.11;69.03
25080;BME280;13071;48.868;9.996;2023-04-05T07:01:30;96931.94;;;2.09;69.40
25080;BME280;13071;48.868;9.996;2023-04-05T07:03:57;96937.53;;;2.33;69.25
25080;BME280;13071;48.868;9.996;2023-04-05T07:06:24;96930.63;;;2.07;69.57
25080;BME280;13071;48.868;9.996;2023-04-05T07:08:51;96934.84;;;2.38;69.28
25080;BME280;13071;48.868;9.996;2023-04-05T07:11:19;96937.44;;;2.74;67.62
25080;BME280;13071;48.868;9.996;2023-04-05T07:13:46;96937.69;;;2.72;66.50
25080;BME280;13071;48.868;9.996;2023-04-05T07:16:12;96937.41;;;2.84;66.42
25080;BME280;13071;48.868;9.996;2023-04-05T07:18:39;96931.09;;;2.49;68.82
25080;BME280;13071;48.868;9.996;2023-04-05T07:21:06;96929.22;;;2.45;69.76
25080;BME280;13071;48.868;9.996;2023-04-05T07:23:32;96933.16;;;2.68;67.83
25080;BME280;13071;48.868;9.996;2023-04-05T07:26:00;96925.94;;;2.78;69.00
25080;BME280;13071;48.868;9.996;2023-04-05T07:28:30;96924.13;;;2.48;66.93
25080;BME280;13071;48.868;9.996;2023-04-05T07:30:57;96925.13;;;2.73;65.47
25080;BME280;13071;48.868;9.996;2023-04-05T07:33:24;96927.81;;;2.73;65.83
25080;BME280;13071;48.868;9.996;2023-04-05T07:35:51;96930.00;;;2.66;65.81
25080;BME280;13071;48.868;9.996;2023-04-05T07:38:18;96933.91;;;2.93;63.76
25080;BME280;13071;48.868;9.996;2023-04-05T07:40:47;96928.16;;;2.51;64.09
25080;BME280;13071;48.868;9.996;2023-04-05T07:43:13;96923.50;;;2.82;63.39
25080;BME280;13071;48.868;9.996;2023-04-05T07:45:41;96920.38;;;3.29;63.31
25080;BME280;13071;48.868;9.996;2023-04-05T07:48:08;96921.34;;;3.43;61.89
25080;BME280;13071;48.868;9.996;2023-04-05T07:50:35;96920.16;;;3.20;63.43
25080;BME280;13071;48.868;9.996;2023-04-05T07:53:04;96929.72;;;3.26;63.36
25080;BME280;13071;48.868;9.996;2023-04-05T07:55:32;96928.66;;;3.71;62.11
25080;BME280;13071;48.868;9.996;2023-04-05T07:57:59;96932.25;;;3.90;62.73
25080;BME280;13071;48.868;9.996;2023-04-05T08:00:25;96922.22;;;4.06;60.56
25080;BME280;13071;48.868;9.996;2023-04-05T08:02:53;96925.75;;;4.30;61.02
25080;BME280;13071;48.868;9.996;2023-04-05T08:05:20;96927.41;;;3.98;61.10
25080;BME280;13071;48.868;9.996;2023-04-05T08:07:46;96931.88;;;4.07;61.31
25080;BME280;13071;48.868;9.996;2023-04-05T08:10:13;96923.78;;;4.41;59.79
25080;BME280;13071;48.868;9.996;2023-04-05T08:12:39;96919.56;;;4.59;61.02
25080;BME280;13071;48.868;9.996;2023-04-05T08:15:07;96922.69;;;4.71;59.08
25080;BME280;13071;48.868;9.996;2023-04-05T08:17:33;96925.66;;;4.41;58.99
25080;BME280;13071;48.868;9.996;2023-04-05T08:20:01;96923.81;;;4.65;56.38
25080;BME280;13071;48.868;9.996;2023-04-05T08:22:28;96925.56;;;4.74;56.46
25080;BME280;13071;48.868;9.996;2023-04-05T08:24:55;96924.22;;;4.53;56.33
25080;BME280;13071;48.868;9.996;2023-04-05T08:27:21;96919.59;;;4.83;54.09
25080;BME280;13071;48.868;9.996;2023-04-05T08:29:48;96917.75;;;5.02;53.70
25080;BME280;13071;48.868;9.996;2023-04-05T08:32:15;96915.03;;;5.07;54.88
25080;BME280;13071;48.868;9.996;2023-04-05T08:34:41;96916.25;;;5.14;54.92
25080;BME280;13071;48.868;9.996;2023-04-05T08:37:09;96920.13;;;5.46;53.67
25080;BME280;13071;48.868;9.996;2023-04-05T08:39:36;96914.06;;;4.98;53.37
25080;BME280;13071;48.868;9.996;2023-04-05T08:42:07;96924.38;;;5.09;53.80
25080;BME280;13071;48.868;9.996;2023-04-05T08:44:38;96916.34;;;5.28;52.57
25080;BME280;13071;48.868;9.996;2023-04-05T08:47:07;96921.09;;;5.55;53.20
25080;BME280;13071;48.868;9.996;2023-04-05T08:49:41;96923.41;;;5.61;51.01
25080;BME280;13071;48.868;9.996;2023-04-05T08:52:09;96919.63;;;5.62;52.76
25080;BME280;13071;48.868;9.996;2023-04-05T08:54:36;96924.72;;;5.64;51.08
25080;BME280;13071;48.868;9.996;2023-04-05T08:57:04;96921.00;;;5.41;52.20
25080;BME280;13071;48.868;9.996;2023-04-05T08:59:32;96931.59;;;5.33;51.42
25080;BME280;13071;48.868;9.996;2023-04-05T09:02:01;96922.88;;;5.22;51.55
25080;BME280;13071;48.868;9.996;2023-04-05T09:04:31;96921.63;;;5.33;52.70
25080;BME280;13071;48.868;9.996;2023-04-05T09:07:05;96927.75;;;4.72;52.97
25080;BME280;13071;48.868;9.996;2023-04-05T09:09:35;96922.44;;;5.34;52.07
25080;BME280;13071;48.868;9.996;2023-04-05T09:12:03;96928.34;;;5.36;51.18
25080;BME280;13071;48.868;9.996;2023-04-05T09:14:32;96926.69;;;4.97;52.36
25080;BME280;13071;48.868;9.996;2023-04-05T09:17:00;96925.16;;;5.10;52.21
25080;BME280;13071;48.868;9.996;2023-04-05T09:19:28;96917.88;;;4.92;51.73
25080;BME280;13071;48.868;9.996;2023-04-05T09:21:58;96923.16;;;4.78;52.06
25080;BME280;13071;48.868;9.996;2023-04-05T09:24:33;96917.19;;;4.81;50.92
25080;BME280;13071;48.868;9.996;2023-04-05T09:27:04;96923.09;;;4.83;50.71
25080;BME280;13071;48.868;9.996;2023-04-05T09:29:31;96922.41;;;4.72;52.16
25080;BME280;13071;48.868;9.996;2023-04-05T09:31:59;96916.44;;;4.99;51.33
25080;BME280;13071;48.868;9.996;2023-04-05T09:34:26;96921.47;;;5.06;51.25
25080;BME280;13071;48.868;9.996;2023-04-05T09:36:52;96918.53;;;5.26;50.92
25080;BME280;13071;48.868;9.996;2023-04-05T09:39:27;96922.88;;;5.78;50.00
25080;BME280;13071;48.868;9.996;2023-04-05T09:42:06;96923.56;;;5.70;49.37
25080;BME280;13071;48.868;9.996;2023-04-05T09:44:48;96921.47;;;5.67;48.48
25080;BME280;13071;48.868;9.996;2023-04-05T09:47:15;96917.22;;;5.80;49.72
25080;BME280;13071;48.868;9.996;2023-04-05T09:49:42;96922.16;;;5.73;48.30
25080;BME280;13071;48.868;9.996;2023-04-05T09:52:17;96923.28;;;5.72;48.18
25080;BME280;13071;48.868;9.996;2023-04-05T09:54:44;96921.88;;;5.74;49.68
25080;BME280;13071;48.868;9.996;2023-04-05T09:57:12;96930.09;;;4.79;50.91
25080;BME280;13071;48.868;9.996;2023-04-05T09:59:40;96921.00;;;4.99;50.79
25080;BME280;13071;48.868;9.996;2023-04-05T10:02:09;96931.41;;;4.29;50.83
25080;BME280;13071;48.868;9.996;2023-04-05T10:04:39;96916.72;;;4.74;52.22
25080;BME280;13071;48.868;9.996;2023-04-05T10:07:08;96915.03;;;5.07;51.79
25080;BME280;13071;48.868;9.996;2023-04-05T10:09:34;96904.63;;;5.00;52.30
25080;BME280;13071;48.868;9.996;2023-04-05T10:12:02;96901.78;;;5.34;52.44
25080;BME280;13071;48.868;9.996;2023-04-05T10:14:31;96899.75;;;5.63;49.51
25080;BME280;13071;48.868;9.996;2023-04-05T10:17:06;96902.13;;;5.84;50.69
25080;BME280;13071;48.868;9.996;2023-04-05T10:19:47;96898.34;;;5.85;48.04
25080;BME280;13071;48.868;9.996;2023-04-05T10:22:22;96887.09;;;6.01;50.38
25080;BME280;13071;48.868;9.996;2023-04-05T10:24:51;96892.50;;;6.15;49.26
25080;BME280;13071;48.868;9.996;2023-04-05T10:27:22;96886.56;;;6.32;48.97
25080;BME280;13071;48.868;9.996;2023-04-05T10:30:02;96886.88;;;6.30;49.45
25080;BME280;13071;48.868;9.996;2023-04-05T10:32:40;96886.75;;;6.22;46.89
25080;BME280;13071;48.868;9.996;2023-04-05T10:35:09;96876.28;;;6.06;47.84
25080;BME280;13071;48.868;9.996;2023-04-05T10:37:48;96880.81;;;6.38;49.59
25080;BME280;13071;48.868;9.996;2023-04-05T10:40:19;96881.34;;;6.54;47.40
25080;BME280;13071;48.868;9.996;2023-04-05T10:42:46;96885.38;;;6.24;47.45
25080;BME280;13071;48.868;9.996;2023-04-05T10:45:16;96894.44;;;6.28;48.70
25080;BME280;13071;48.868;9.996;2023-04-05T10:47:47;96888.66;;;6.21;48.22
25080;BME280;13071;48.868;9.996;2023-04-05T10:50:20;96882.88;;;6.41;46.83
25080;BME280;13071;48.868;9.996;2023-04-05T10:52:48;96880.25;;;6.69;48.56
25080;BME280;13071;48.868;9.996;2023-04-05T10:55:15;96882.47;;;6.21;48.80
25080;BME280;13071;48.868;9.996;2023-04-05T10:57:42;96874.25;;;6.58;48.16
25080;BME280;13071;48.868;9.996;2023-04-05T11:00:11;96884.00;;;5.94;47.77
25080;BME280;13071;48.868;9.996;2023-04-05T11:02:40;96878.03;;;5.79;49.37
25080;BME280;13071;48.868;9.996;2023-04-05T11:05:28;96874.44;;;6.62;47.21
25080;BME280;13071;48.868;9.996;2023-04-05T11:08:02;96870.28;;;6.83;46.95
25080;BME280;13071;48.868;9.996;2023-04-05T11:10:29;96872.38;;;7.00;46.12
25080;BME280;13071;48.868;9.996;2023-04-05T11:13:07;96873.66;;;7.02;45.95
25080;BME280;13071;48.868;9.996;2023-04-05T11:15:35;96864.91;;;6.69;47.20
25080;BME280;13071;48.868;9.996;2023-04-05T11:18:08;96863.91;;;6.79;51.58
25080;BME280;13071;48.868;9.996;2023-04-05T11:20:42;96862.75;;;7.21;48.11
25080;BME280;13071;48.868;9.996;2023-04-05T11:23:09;96858.59;;;7.15;49.35
25080;BME280;13071;48.868;9.996;2023-04-05T11:25:37;96864.88;;;7.46;47.80
25080;BME280;13071;48.868;9.996;2023-04-05T11:28:04;96868.25;;;6.20;46.98
25080;BME280;13071;48.868;9.996;2023-04-05T11:30:45;96854.66;;;6.85;47.11
25080;BME280;13071;48.868;9.996;2023-04-05T11:36:28;96856.28;;;7.22;44.81
25080;BME280;13071;48.868;9.996;2023-04-05T11:39:23;96847.84;;;6.87;46.62
25080;BME280;13071;48.868;9.996;2023-04-05T11:41:54;96847.25;;;6.77;47.84
25080;BME280;13071;48.868;9.996;2023-04-05T11:44:21;96848.06;;;6.50;48.91
25080;BME280;13071;48.868;9.996;2023-04-05T11:46:49;96840.00;;;6.36;49.28
25080;BME280;13071;48.868;9.996;2023-04-05T11:49:15;96830.88;;;7.01;50.72
25080;BME280;13071;48.868;9.996;2023-04-05T11:51:43;96846.31;;;6.13;48.72
25080;BME280;13071;48.868;9.996;2023-04-05T11:54:13;96843.78;;;6.63;48.41
25080;BME280;13071;48.868;9.996;2023-04-05T11:56:39;96840.28;;;6.89;45.37
25080;BME280;13071;48.868;9.996;2023-04-05T11:59:06;96842.41;;;5.92;48.25
25080;BME280;13071;48.868;9.996;2023-04-05T12:01:33;96835.25;;;6.01;47.47
25080;BME280;13071;48.868;9.996;2023-04-05T12:03:59;96833.44;;;6.56;47.35
25080;BME280;13071;48.868;9.996;2023-04-05T12:06:26;96835.03;;;6.71;50.90
25080;BME280;13071;48.868;9.996;2023-04-05T12:08:54;96834.50;;;6.28;48.32
25080;BME280;13071;48.868;9.996;2023-04-05T12:11:23;96830.78;;;5.96;47.48
25080;BME280;13071;48.868;9.996;2023-04-05T12:13:53;96827.44;;;6.32;48.65
25080;BME280;13071;48.868;9.996;2023-04-05T12:16:20;96826.44;;;6.41;51.08
25080;BME280;13071;48.868;9.996;2023-04-05T12:18:52;96823.22;;;7.08;48.30
25080;BME280;13071;48.868;9.996;2023-04-05T12:21:19;96823.00;;;7.40;45.83
25080;BME280;13071;48.868;9.996;2023-04-05T12:23:46;96816.81;;;7.53;45.54
25080;BME280;13071;48.868;9.996;2023-04-05T12:26:14;96822.06;;;7.58;46.02
25080;BME280;13071;48.868;9.996;2023-04-05T12:28:51;96806.75;;;7.45;45.27
25080;BME280;13071;48.868;9.996;2023-04-05T12:31:39;96802.22;;;7.76;45.26
25080;BME280;13071;48.868;9.996;2023-04-05T12:34:06;96814.19;;;7.26;47.11
25080;BME280;13071;48.868;9.996;2023-04-05T12:36:33;96803.78;;;7.69;48.52
25080;BME280;13071;48.868;9.996;2023-04-05T12:39:05;96797.72;;;7.63;47.24
25080;BME280;13071;48.868;9.996;2023-04-05T12:41:33;96807.75;;;7.49;45.86
25080;BME280;13071;48.868;9.996;2023-04-05T12:44:04;96799.44;;;7.59;44.18
25080;BME280;13071;48.868;9.996;2023-04-05T12:46:48;96799.59;;;6.91;47.66
25080;BME280;13071;48.868;9.996;2023-04-05T12:49:16;96788.91;;;6.50;46.00
25080;BME280;13071;48.868;9.996;2023-04-05T12:51:44;96797.91;;;7.09;47.13
25080;BME280;13071;48.868;9.996;2023-04-05T12:54:11;96779.06;;;7.31;45.77
25080;BME280;13071;48.868;9.996;2023-04-05T12:56:40;96777.44;;;7.44;45.60
25080;BME280;13071;48.868;9.996;2023-04-05T12:59:07;96784.53;;;7.40;46.41
25080;BME280;13071;48.868;9.996;2023-04-05T13:01:34;96766.84;;;7.47;45.28
25080;BME280;13071;48.868;9.996;2023-04-05T13:04:01;96776.25;;;7.80;45.86
25080;BME280;13071;48.868;9.996;2023-04-05T13:06:29;96762.66;;;8.16;46.37
25080;BME280;13071;48.868;9.996;2023-04-05T13:08:56;96772.97;;;7.61;45.62
25080;BME280;13071;48.868;9.996;2023-04-05T13:11:22;96771.47;;;7.55;45.64
25080;BME280;13071;48.868;9.996;2023-04-05T13:13:50;96765.34;;;7.55;47.99
25080;BME280;13071;48.868;9.996;2023-04-05T13:16:17;96763.06;;;6.76;47.86
25080;BME280;13071;48.868;9.996;2023-04-05T13:18:44;96763.06;;;6.76;48.17